Terminal Aerodrome Forecast
Issued by NWS

Home | Current Version | Previous Version | Text Only | Print | Product List | Glossary On
Versions: 1 2 3 4 5 6 7 8 9 10 11 12 13 14 15 16 17 18 19 20 21
621
FTUS44 KLZK 240115 AAA
TAFBPK
TAF AMD
KBPK 240115Z 2401/2424 17006KT P6SM SKC
     FM240400 18008KT P6SM BKN250
     FM240900 20010KT P6SM BKN025 BKN250
     FM241300 27010G16KT P6SM BKN025 BKN250
     FM241700 30012G20KT P6SM FEW250=

USA.gov is the U.S. government's official web portal to all federal, state and local government web resources and services.